sensor_id;sensor_type;location;lat;lon;timestamp;temperature;humidity
28087;DHT22;15392;48.912;8.380;2023-05-29T00:00:18;22.60;35.00
28087;DHT22;15392;48.912;8.380;2023-05-29T00:02:46;22.60;35.10
28087;DHT22;15392;48.912;8.380;2023-05-29T00:05:13;22.60;35.00
28087;DHT22;15392;48.912;8.380;2023-05-29T00:07:40;22.60;35.00
28087;DHT22;15392;48.912;8.380;2023-05-29T00:10:08;22.60;35.00
28087;DHT22;15392;48.912;8.380;2023-05-29T00:12:35;22.60;35.00
28087;DHT22;15392;48.912;8.380;2023-05-29T00:15:02;22.60;35.00
28087;DHT22;15392;48.912;8.380;2023-05-29T00:17:31;22.60;35.00
28087;DHT22;15392;48.912;8.380;2023-05-29T00:20:00;22.60;35.00
28087;DHT22;15392;48.912;8.380;2023-05-29T00:22:28;22.60;34.90
28087;DHT22;15392;48.912;8.380;2023-05-29T00:24:53;22.60;35.00
28087;DHT22;15392;48.912;8.380;2023-05-29T00:27:19;22.50;35.00
28087;DHT22;15392;48.912;8.380;2023-05-29T00:29:46;22.60;35.00
28087;DHT22;15392;48.912;8.380;2023-05-29T00:32:11;22.50;35.00
28087;DHT22;15392;48.912;8.380;2023-05-29T00:34:37;22.50;35.00
28087;DHT22;15392;48.912;8.380;2023-05-29T00:37:03;22.40;35.00
28087;DHT22;15392;48.912;8.380;2023-05-29T00:39:29;22.40;35.00
28087;DHT22;15392;48.912;8.380;2023-05-29T00:41:55;22.40;35.10
28087;DHT22;15392;48.912;8.380;2023-05-29T00:44:22;22.40;35.10
28087;DHT22;15392;48.912;8.380;2023-05-29T00:46:49;22.40;35.10
28087;DHT22;15392;48.912;8.380;2023-05-29T00:49:16;22.30;35.00
28087;DHT22;15392;48.912;8.380;2023-05-29T00:51:42;22.30;35.00
28087;DHT22;15392;48.912;8.380;2023-05-29T00:54:14;22.30;35.00
28087;DHT22;15392;48.912;8.380;2023-05-29T00:56:44;22.30;35.10
28087;DHT22;15392;48.912;8.380;2023-05-29T00:59:11;22.30;35.10
28087;DHT22;15392;48.912;8.380;2023-05-29T01:01:38;22.20;35.10
28087;DHT22;15392;48.912;8.380;2023-05-29T01:04:05;22.20;35.20
28087;DHT22;15392;48.912;8.380;2023-05-29T01:06:35;22.20;35.10
28087;DHT22;15392;48.912;8.380;2023-05-29T01:09:02;22.20;35.10
28087;DHT22;15392;48.912;8.380;2023-05-29T01:14:17;22.10;35.20
28087;DHT22;15392;48.912;8.380;2023-05-29T01:17:17;22.10;35.20
28087;DHT22;15392;48.912;8.380;2023-05-29T01:28:42;22.10;35.10
28087;DHT22;15392;48.912;8.380;2023-05-29T01:31:13;22.10;35.30
28087;DHT22;15392;48.912;8.380;2023-05-29T01:33:40;22.10;35.10
28087;DHT22;15392;48.912;8.380;2023-05-29T01:36:09;22.10;35.00
28087;DHT22;15392;48.912;8.380;2023-05-29T01:38:36;22.10;35.10
28087;DHT22;15392;48.912;8.380;2023-05-29T01:41:03;22.20;35.10
28087;DHT22;15392;48.912;8.380;2023-05-29T01:43:30;22.10;35.00
28087;DHT22;15392;48.912;8.380;2023-05-29T01:45:56;22.10;35.20
28087;DHT22;15392;48.912;8.380;2023-05-29T01:48:23;22.20;35.20
28087;DHT22;15392;48.912;8.380;2023-05-29T01:50:49;22.20;35.50
28087;DHT22;15392;48.912;8.380;2023-05-29T01:53:15;22.20;35.50
28087;DHT22;15392;48.912;8.380;2023-05-29T01:55:41;22.20;35.60
28087;DHT22;15392;48.912;8.380;2023-05-29T01:58:07;22.20;35.60
28087;DHT22;15392;48.912;8.380;2023-05-29T02:00:34;22.20;35.60
28087;DHT22;15392;48.912;8.380;2023-05-29T02:03:00;22.20;35.60
28087;DHT22;15392;48.912;8.380;2023-05-29T02:05:27;22.20;35.60
28087;DHT22;15392;48.912;8.380;2023-05-29T02:07:53;22.20;35.60
28087;DHT22;15392;48.912;8.380;2023-05-29T02:10:18;22.20;35.60
28087;DHT22;15392;48.912;8.380;2023-05-29T02:12:44;22.10;35.50
28087;DHT22;15392;48.912;8.380;2023-05-29T02:15:10;22.10;35.50
28087;DHT22;15392;48.912;8.380;2023-05-29T02:17:36;22.10;35.50
28087;DHT22;15392;48.912;8.380;2023-05-29T02:20:02;22.10;35.60
28087;DHT22;15392;48.912;8.380;2023-05-29T02:22:29;22.00;35.50
28087;DHT22;15392;48.912;8.380;2023-05-29T02:24:55;22.00;35.50
28087;DHT22;15392;48.912;8.380;2023-05-29T02:27:21;21.90;35.50
28087;DHT22;15392;48.912;8.380;2023-05-29T02:29:46;21.90;35.50
28087;DHT22;15392;48.912;8.380;2023-05-29T02:32:12;21.90;35.60
28087;DHT22;15392;48.912;8.380;2023-05-29T02:34:38;21.80;35.60
28087;DHT22;15392;48.912;8.380;2023-05-29T02:37:03;21.70;35.70
28087;DHT22;15392;48.912;8.380;2023-05-29T02:39:29;21.70;35.80
28087;DHT22;15392;48.912;8.380;2023-05-29T02:41:55;21.60;35.80
28087;DHT22;15392;48.912;8.380;2023-05-29T02:44:21;21.60;35.90
28087;DHT22;15392;48.912;8.380;2023-05-29T02:46:46;21.60;36.00
28087;DHT22;15392;48.912;8.380;2023-05-29T02:49:12;21.50;35.90
28087;DHT22;15392;48.912;8.380;2023-05-29T02:51:38;21.50;35.90
28087;DHT22;15392;48.912;8.380;2023-05-29T02:54:03;21.50;35.90
28087;DHT22;15392;48.912;8.380;2023-05-29T02:56:30;21.50;36.00
28087;DHT22;15392;48.912;8.380;2023-05-29T02:58:55;21.50;36.10
28087;DHT22;15392;48.912;8.380;2023-05-29T03:01:21;21.50;36.20
28087;DHT22;15392;48.912;8.380;2023-05-29T03:03:47;21.50;36.20
28087;DHT22;15392;48.912;8.380;2023-05-29T03:06:13;21.50;36.30
28087;DHT22;15392;48.912;8.380;2023-05-29T03:08:38;21.40;36.20
28087;DHT22;15392;48.912;8.380;2023-05-29T03:11:07;21.40;36.40
28087;DHT22;15392;48.912;8.380;2023-05-29T03:13:36;21.40;36.30
28087;DHT22;15392;48.912;8.380;2023-05-29T03:16:03;21.40;36.30
28087;DHT22;15392;48.912;8.380;2023-05-29T03:18:28;21.40;36.40
28087;DHT22;15392;48.912;8.380;2023-05-29T03:20:54;21.40;36.40
28087;DHT22;15392;48.912;8.380;2023-05-29T03:23:20;21.40;36.40
28087;DHT22;15392;48.912;8.380;2023-05-29T03:25:47;21.30;36.40
28087;DHT22;15392;48.912;8.380;2023-05-29T03:28:13;21.30;36.40
28087;DHT22;15392;48.912;8.380;2023-05-29T03:30:38;21.30;36.40
28087;DHT22;15392;48.912;8.380;2023-05-29T03:33:04;21.20;36.50
28087;DHT22;15392;48.912;8.380;2023-05-29T03:35:30;21.20;36.60
28087;DHT22;15392;48.912;8.380;2023-05-29T03:37:56;21.20;36.60
28087;DHT22;15392;48.912;8.380;2023-05-29T03:40:21;21.20;36.60
28087;DHT22;15392;48.912;8.380;2023-05-29T03:42:47;21.10;36.60
28087;DHT22;15392;48.912;8.380;2023-05-29T03:45:13;21.10;36.60
28087;DHT22;15392;48.912;8.380;2023-05-29T03:47:38;21.00;36.70
28087;DHT22;15392;48.912;8.380;2023-05-29T03:50:05;21.00;36.70
28087;DHT22;15392;48.912;8.380;2023-05-29T03:52:31;20.90;36.70
28087;DHT22;15392;48.912;8.380;2023-05-29T03:54:56;20.90;36.90
28087;DHT22;15392;48.912;8.380;2023-05-29T03:57:22;20.80;37.00
28087;DHT22;15392;48.912;8.380;2023-05-29T03:59:48;20.80;37.10
28087;DHT22;15392;48.912;8.380;2023-05-29T04:02:13;20.80;37.10
28087;DHT22;15392;48.912;8.380;2023-05-29T04:04:39;20.70;37.10
28087;DHT22;15392;48.912;8.380;2023-05-29T04:07:05;20.70;37.10
28087;DHT22;15392;48.912;8.380;2023-05-29T04:09:33;20.70;37.20
28087;DHT22;15392;48.912;8.380;2023-05-29T04:11:59;20.70;37.80
28087;DHT22;15392;48.912;8.380;2023-05-29T04:14:27;20.70;37.20
28087;DHT22;15392;48.912;8.380;2023-05-29T04:16:54;20.60;37.20
28087;DHT22;15392;48.912;8.380;2023-05-29T04:19:19;20.70;37.10
28087;DHT22;15392;48.912;8.380;2023-05-29T04:21:46;20.70;37.20
28087;DHT22;15392;48.912;8.380;2023-05-29T04:24:14;20.60;37.10
28087;DHT22;15392;48.912;8.380;2023-05-29T04:26:40;20.60;37.10
28087;DHT22;15392;48.912;8.380;2023-05-29T04:29:08;20.60;37.20
28087;DHT22;15392;48.912;8.380;2023-05-29T04:31:34;20.60;37.20
28087;DHT22;15392;48.912;8.380;2023-05-29T04:34:02;20.50;37.30
28087;DHT22;15392;48.912;8.380;2023-05-29T04:36:30;20.50;37.30
28087;DHT22;15392;48.912;8.380;2023-05-29T04:38:58;20.50;37.40
28087;DHT22;15392;48.912;8.380;2023-05-29T04:41:24;20.50;37.40
28087;DHT22;15392;48.912;8.380;2023-05-29T04:43:58;20.50;37.60
28087;DHT22;15392;48.912;8.380;2023-05-29T04:46:24;20.60;37.50
28087;DHT22;15392;48.912;8.380;2023-05-29T04:48:51;20.60;37.40
28087;DHT22;15392;48.912;8.380;2023-05-29T04:51:20;20.50;37.40
28087;DHT22;15392;48.912;8.380;2023-05-29T04:53:47;20.60;37.30
28087;DHT22;15392;48.912;8.380;2023-05-29T04:56:14;20.50;37.40
28087;DHT22;15392;48.912;8.380;2023-05-29T04:58:41;20.60;37.40
28087;DHT22;15392;48.912;8.380;2023-05-29T05:01:07;20.60;37.60
28087;DHT22;15392;48.912;8.380;2023-05-29T05:03:34;20.50;37.60
28087;DHT22;15392;48.912;8.380;2023-05-29T05:06:01;20.60;37.50
28087;DHT22;15392;48.912;8.380;2023-05-29T05:08:33;20.50;37.30
28087;DHT22;15392;48.912;8.380;2023-05-29T05:11:00;20.50;37.30
28087;DHT22;15392;48.912;8.380;2023-05-29T05:13:26;20.50;37.40
28087;DHT22;15392;48.912;8.380;2023-05-29T05:15:53;20.50;37.50
28087;DHT22;15392;48.912;8.380;2023-05-29T05:18:19;20.50;37.80
28087;DHT22;15392;48.912;8.380;2023-05-29T05:20:45;20.50;37.90
28087;DHT22;15392;48.912;8.380;2023-05-29T05:23:11;20.50;37.80
28087;DHT22;15392;48.912;8.380;2023-05-29T05:25:37;20.60;37.90
28087;DHT22;15392;48.912;8.380;2023-05-29T05:28:04;20.60;37.80
28087;DHT22;15392;48.912;8.380;2023-05-29T05:30:30;20.60;37.80
28087;DHT22;15392;48.912;8.380;2023-05-29T05:32:57;20.60;37.80
28087;DHT22;15392;48.912;8.380;2023-05-29T05:35:23;20.60;38.50
28087;DHT22;15392;48.912;8.380;2023-05-29T05:37:49;20.70;37.90
28087;DHT22;15392;48.912;8.380;2023-05-29T05:40:15;20.70;37.80
28087;DHT22;15392;48.912;8.380;2023-05-29T05:42:41;20.70;38.50
28087;DHT22;15392;48.912;8.380;2023-05-29T05:45:08;20.80;38.00
28087;DHT22;15392;48.912;8.380;2023-05-29T05:47:34;20.80;38.10
28087;DHT22;15392;48.912;8.380;2023-05-29T05:50:00;20.80;38.00
28087;DHT22;15392;48.912;8.380;2023-05-29T05:52:26;20.80;37.80
28087;DHT22;15392;48.912;8.380;2023-05-29T05:54:56;20.90;37.90
28087;DHT22;15392;48.912;8.380;2023-05-29T05:57:22;21.00;37.80
28087;DHT22;15392;48.912;8.380;2023-05-29T05:59:48;21.00;37.60
28087;DHT22;15392;48.912;8.380;2023-05-29T06:02:14;21.10;37.60
28087;DHT22;15392;48.912;8.380;2023-05-29T06:04:40;21.20;37.60
28087;DHT22;15392;48.912;8.380;2023-05-29T06:07:07;21.20;37.60
28087;DHT22;15392;48.912;8.380;2023-05-29T06:09:33;21.30;37.50
28087;DHT22;15392;48.912;8.380;2023-05-29T06:11:59;21.30;37.40
28087;DHT22;15392;48.912;8.380;2023-05-29T06:14:25;21.40;37.50
28087;DHT22;15392;48.912;8.380;2023-05-29T06:16:51;21.50;37.60
28087;DHT22;15392;48.912;8.380;2023-05-29T06:19:17;21.50;37.50
28087;DHT22;15392;48.912;8.380;2023-05-29T06:21:42;21.60;37.50
28087;DHT22;15392;48.912;8.380;2023-05-29T06:24:08;21.60;37.50
28087;DHT22;15392;48.912;8.380;2023-05-29T06:26:35;21.70;37.50
28087;DHT22;15392;48.912;8.380;2023-05-29T06:29:01;21.80;37.50
28087;DHT22;15392;48.912;8.380;2023-05-29T06:31:27;21.80;37.40
28087;DHT22;15392;48.912;8.380;2023-05-29T06:33:54;21.90;37.40
28087;DHT22;15392;48.912;8.380;2023-05-29T06:36:20;22.00;37.50
28087;DHT22;15392;48.912;8.380;2023-05-29T06:38:47;22.10;37.40
28087;DHT22;15392;48.912;8.380;2023-05-29T06:41:15;22.20;37.30
28087;DHT22;15392;48.912;8.380;2023-05-29T06:43:41;22.20;37.20
28087;DHT22;15392;48.912;8.380;2023-05-29T06:46:07;22.30;37.20
28087;DHT22;15392;48.912;8.380;2023-05-29T06:48:34;22.40;37.10
28087;DHT22;15392;48.912;8.380;2023-05-29T06:51:02;22.50;37.10
28087;DHT22;15392;48.912;8.380;2023-05-29T06:53:40;22.60;37.00
28087;DHT22;15392;48.912;8.380;2023-05-29T06:56:07;22.60;36.80
28087;DHT22;15392;48.912;8.380;2023-05-29T06:58:33;22.70;36.70
28087;DHT22;15392;48.912;8.380;2023-05-29T07:01:00;22.90;36.70
28087;DHT22;15392;48.912;8.380;2023-05-29T07:03:26;22.90;36.60
28087;DHT22;15392;48.912;8.380;2023-05-29T07:05:52;23.00;36.70
28087;DHT22;15392;48.912;8.380;2023-05-29T07:08:18;23.10;36.60
28087;DHT22;15392;48.912;8.380;2023-05-29T07:10:44;23.20;36.70
28087;DHT22;15392;48.912;8.380;2023-05-29T07:13:18;23.30;37.30
28087;DHT22;15392;48.912;8.380;2023-05-29T07:15:44;23.40;36.60
28087;DHT22;15392;48.912;8.380;2023-05-29T07:18:10;23.50;37.20
28087;DHT22;15392;48.912;8.380;2023-05-29T07:20:36;23.60;36.60
28087;DHT22;15392;48.912;8.380;2023-05-29T07:23:02;23.70;36.50
28087;DHT22;15392;48.912;8.380;2023-05-29T07:25:29;23.90;36.50
28087;DHT22;15392;48.912;8.380;2023-05-29T07:27:56;24.00;36.50
28087;DHT22;15392;48.912;8.380;2023-05-29T07:30:22;24.10;36.50
28087;DHT22;15392;48.912;8.380;2023-05-29T07:32:48;24.20;36.40
28087;DHT22;15392;48.912;8.380;2023-05-29T07:35:13;24.30;36.40
28087;DHT22;15392;48.912;8.380;2023-05-29T07:37:39;24.40;36.40
28087;DHT22;15392;48.912;8.380;2023-05-29T07:40:05;24.60;36.40
28087;DHT22;15392;48.912;8.380;2023-05-29T07:42:33;24.70;36.00
28087;DHT22;15392;48.912;8.380;2023-05-29T07:44:59;24.90;36.20
28087;DHT22;15392;48.912;8.380;2023-05-29T07:47:25;25.00;36.30
28087;DHT22;15392;48.912;8.380;2023-05-29T07:49:51;25.20;36.40
28087;DHT22;15392;48.912;8.380;2023-05-29T07:52:18;25.30;36.50
28087;DHT22;15392;48.912;8.380;2023-05-29T07:54:45;25.50;36.60
28087;DHT22;15392;48.912;8.380;2023-05-29T07:57:11;25.70;36.40
28087;DHT22;15392;48.912;8.380;2023-05-29T07:59:37;25.90;36.50
28087;DHT22;15392;48.912;8.380;2023-05-29T08:02:07;26.00;36.20
28087;DHT22;15392;48.912;8.380;2023-05-29T08:04:33;26.20;36.10
28087;DHT22;15392;48.912;8.380;2023-05-29T08:07:00;26.40;36.10
28087;DHT22;15392;48.912;8.380;2023-05-29T08:09:27;26.60;36.00
28087;DHT22;15392;48.912;8.380;2023-05-29T08:11:53;26.80;36.00
28087;DHT22;15392;48.912;8.380;2023-05-29T08:14:19;27.00;36.00
28087;DHT22;15392;48.912;8.380;2023-05-29T08:16:45;27.20;36.00
28087;DHT22;15392;48.912;8.380;2023-05-29T08:19:10;27.40;35.90
28087;DHT22;15392;48.912;8.380;2023-05-29T08:21:36;27.70;35.90
28087;DHT22;15392;48.912;8.380;2023-05-29T08:24:03;27.90;35.80
28087;DHT22;15392;48.912;8.380;2023-05-29T08:26:32;28.10;35.90
28087;DHT22;15392;48.912;8.380;2023-05-29T08:28:58;28.30;35.80
28087;DHT22;15392;48.912;8.380;2023-05-29T08:31:24;28.50;35.70
28087;DHT22;15392;48.912;8.380;2023-05-29T08:33:51;28.80;35.50
28087;DHT22;15392;48.912;8.380;2023-05-29T08:36:17;29.00;35.40
28087;DHT22;15392;48.912;8.380;2023-05-29T08:38:46;29.20;35.20
28087;DHT22;15392;48.912;8.380;2023-05-29T08:44:14;29.60;34.20
28087;DHT22;15392;48.912;8.380;2023-05-29T08:46:40;29.70;34.80
28087;DHT22;15392;48.912;8.380;2023-05-29T08:49:08;29.90;35.00
28087;DHT22;15392;48.912;8.380;2023-05-29T08:51:37;30.10;34.40
28087;DHT22;15392;48.912;8.380;2023-05-29T08:54:09;30.20;34.30
28087;DHT22;15392;48.912;8.380;2023-05-29T08:56:36;30.30;34.50
28087;DHT22;15392;48.912;8.380;2023-05-29T08:59:02;30.40;34.50
28087;DHT22;15392;48.912;8.380;2023-05-29T09:01:28;30.40;34.50
28087;DHT22;15392;48.912;8.380;2023-05-29T09:03:56;30.50;34.40
28087;DHT22;15392;48.912;8.380;2023-05-29T09:06:23;30.60;34.40
28087;DHT22;15392;48.912;8.380;2023-05-29T09:08:51;30.60;34.30
28087;DHT22;15392;48.912;8.380;2023-05-29T09:11:18;30.70;34.40
28087;DHT22;15392;48.912;8.380;2023-05-29T09:13:46;30.80;34.40
28087;DHT22;15392;48.912;8.380;2023-05-29T09:16:12;30.90;34.20
28087;DHT22;15392;48.912;8.380;2023-05-29T09:18:38;30.90;34.30
28087;DHT22;15392;48.912;8.380;2023-05-29T09:21:07;31.00;34.40
28087;DHT22;15392;48.912;8.380;2023-05-29T09:23:36;31.10;34.00
28087;DHT22;15392;48.912;8.380;2023-05-29T09:26:03;31.20;34.50
28087;DHT22;15392;48.912;8.380;2023-05-29T09:28:30;31.30;34.50
28087;DHT22;15392;48.912;8.380;2023-05-29T09:30:59;31.40;34.50
28087;DHT22;15392;48.912;8.380;2023-05-29T09:33:25;31.50;34.50
28087;DHT22;15392;48.912;8.380;2023-05-29T09:35:51;31.70;35.10
28087;DHT22;15392;48.912;8.380;2023-05-29T09:38:18;31.80;34.40
28087;DHT22;15392;48.912;8.380;2023-05-29T09:40:45;32.00;34.20
28087;DHT22;15392;48.912;8.380;2023-05-29T09:43:16;32.00;33.80
28087;DHT22;15392;48.912;8.380;2023-05-29T09:45:45;32.10;33.10
28087;DHT22;15392;48.912;8.380;2023-05-29T09:48:22;32.20;33.70
28087;DHT22;15392;48.912;8.380;2023-05-29T09:50:48;32.20;33.30
28087;DHT22;15392;48.912;8.380;2023-05-29T09:53:21;32.20;33.20
28087;DHT22;15392;48.912;8.380;2023-05-29T09:55:51;32.30;32.80
28087;DHT22;15392;48.912;8.380;2023-05-29T09:58:24;32.40;33.40
28087;DHT22;15392;48.912;8.380;2023-05-29T10:00:51;32.30;32.70
28087;DHT22;15392;48.912;8.380;2023-05-29T10:03:17;32.40;33.30
28087;DHT22;15392;48.912;8.380;2023-05-29T10:05:50;32.40;33.30
28087;DHT22;15392;48.912;8.380;2023-05-29T10:08:19;32.30;32.70
28087;DHT22;15392;48.912;8.380;2023-05-29T10:10:56;32.30;32.90
28087;DHT22;15392;48.912;8.380;2023-05-29T10:13:28;32.20;32.40
28087;DHT22;15392;48.912;8.380;2023-05-29T10:15:58;32.20;32.90
28087;DHT22;15392;48.912;8.380;2023-05-29T10:18:37;32.20;33.10
28087;DHT22;15392;48.912;8.380;2023-05-29T10:21:04;32.10;32.10
28087;DHT22;15392;48.912;8.380;2023-05-29T10:23:32;32.10;33.10
28087;DHT22;15392;48.912;8.380;2023-05-29T10:26:19;32.10;33.10
28087;DHT22;15392;48.912;8.380;2023-05-29T10:29:17;32.00;31.80
28087;DHT22;15392;48.912;8.380;2023-05-29T10:39:53;31.80;32.30
28087;DHT22;15392;48.912;8.380;2023-05-29T10:42:54;31.80;33.20
28087;DHT22;15392;48.912;8.380;2023-05-29T10:50:43;31.70;32.20
28087;DHT22;15392;48.912;8.380;2023-05-29T10:53:17;31.70;32.40
28087;DHT22;15392;48.912;8.380;2023-05-29T10:55:48;31.60;32.60
28087;DHT22;15392;48.912;8.380;2023-05-29T10:58:21;31.60;33.20
28087;DHT22;15392;48.912;8.380;2023-05-29T11:00:52;31.50;32.50
28087;DHT22;15392;48.912;8.380;2023-05-29T11:03:23;31.50;33.10
28087;DHT22;15392;48.912;8.380;2023-05-29T11:08:43;31.50;32.50
28087;DHT22;15392;48.912;8.380;2023-05-29T11:11:14;31.50;33.00
28087;DHT22;15392;48.912;8.380;2023-05-29T11:13:51;31.40;32.70
28087;DHT22;15392;48.912;8.380;2023-05-29T11:18:52;31.40;32.50
28087;DHT22;15392;48.912;8.380;2023-05-29T11:21:29;31.40;32.90
28087;DHT22;15392;48.912;8.380;2023-05-29T11:24:27;31.40;32.50
28087;DHT22;15392;48.912;8.380;2023-05-29T11:26:58;31.40;31.70
28087;DHT22;15392;48.912;8.380;2023-05-29T11:29:29;31.30;32.60
28087;DHT22;15392;48.912;8.380;2023-05-29T11:32:02;31.30;31.70
28087;DHT22;15392;48.912;8.380;2023-05-29T11:34:39;31.30;31.80
28087;DHT22;15392;48.912;8.380;2023-05-29T11:37:06;31.30;32.40
28087;DHT22;15392;48.912;8.380;2023-05-29T11:39:36;31.30;32.80
28087;DHT22;15392;48.912;8.380;2023-05-29T11:42:03;31.30;32.20
28087;DHT22;15392;48.912;8.380;2023-05-29T11:45:24;31.30;32.40
28087;DHT22;15392;48.912;8.380;2023-05-29T11:48:31;31.30;31.50
28087;DHT22;15392;48.912;8.380;2023-05-29T11:51:37;31.30;32.50
28087;DHT22;15392;48.912;8.380;2023-05-29T11:54:49;31.40;32.80
28087;DHT22;15392;48.912;8.380;2023-05-29T11:58:00;31.50;32.80
28087;DHT22;15392;48.912;8.380;2023-05-29T12:01:07;31.60;32.30
28087;DHT22;15392;48.912;8.380;2023-05-29T12:04:15;31.70;33.30
28087;DHT22;15392;48.912;8.380;2023-05-29T12:07:22;31.80;32.50
28087;DHT22;15392;48.912;8.380;2023-05-29T12:10:28;31.80;32.30
28087;DHT22;15392;48.912;8.380;2023-05-29T12:13:35;31.90;32.40
28087;DHT22;15392;48.912;8.380;2023-05-29T12:16:41;32.00;32.40
28087;DHT22;15392;48.912;8.380;2023-05-29T12:19:48;32.00;32.30
28087;DHT22;15392;48.912;8.380;2023-05-29T12:23:00;32.10;31.80
28087;DHT22;15392;48.912;8.380;2023-05-29T12:26:07;32.20;31.20
28087;DHT22;15392;48.912;8.380;2023-05-29T12:29:15;32.30;32.10
28087;DHT22;15392;48.912;8.380;2023-05-29T12:32:21;32.40;31.80
28087;DHT22;15392;48.912;8.380;2023-05-29T12:35:29;32.40;31.90
28087;DHT22;15392;48.912;8.380;2023-05-29T12:39:05;32.50;31.40
28087;DHT22;15392;48.912;8.380;2023-05-29T12:42:14;32.60;30.70
28087;DHT22;15392;48.912;8.380;2023-05-29T12:45:24;32.60;32.00
28087;DHT22;15392;48.912;8.380;2023-05-29T12:48:34;32.70;31.20
28087;DHT22;15392;48.912;8.380;2023-05-29T12:51:43;32.70;31.60
28087;DHT22;15392;48.912;8.380;2023-05-29T12:54:14;32.80;31.10
28087;DHT22;15392;48.912;8.380;2023-05-29T12:56:40;32.80;30.40
28087;DHT22;15392;48.912;8.380;2023-05-29T12:59:10;32.80;31.30
28087;DHT22;15392;48.912;8.380;2023-05-29T13:01:37;32.90;30.80
28087;DHT22;15392;48.912;8.380;2023-05-29T13:04:06;32.90;30.80
28087;DHT22;15392;48.912;8.380;2023-05-29T13:06:35;32.90;28.80
28087;DHT22;15392;48.912;8.380;2023-05-29T13:09:03;32.90;30.70
28087;DHT22;15392;48.912;8.380;2023-05-29T13:11:29;33.00;31.10
28087;DHT22;15392;48.912;8.380;2023-05-29T13:13:54;33.00;31.10
28087;DHT22;15392;48.912;8.380;2023-05-29T13:16:21;33.00;31.10
28087;DHT22;15392;48.912;8.380;2023-05-29T13:18:47;33.00;31.10
28087;DHT22;15392;48.912;8.380;2023-05-29T13:21:12;33.00;30.90
28087;DHT22;15392;48.912;8.380;2023-05-29T13:23:38;33.00;30.60
28087;DHT22;15392;48.912;8.380;2023-05-29T13:26:04;33.10;30.40
28087;DHT22;15392;48.912;8.380;2023-05-29T13:28:31;33.10;30.30
28087;DHT22;15392;48.912;8.380;2023-05-29T13:30:57;33.10;30.50
28087;DHT22;15392;48.912;8.380;2023-05-29T13:33:22;33.00;30.30
28087;DHT22;15392;48.912;8.380;2023-05-29T13:35:48;33.00;29.90
28087;DHT22;15392;48.912;8.380;2023-05-29T13:38:14;33.00;29.10
28087;DHT22;15392;48.912;8.380;2023-05-29T13:40:43;33.00;30.10
28087;DHT22;15392;48.912;8.380;2023-05-29T13:43:09;32.90;30.40
28087;DHT22;15392;48.912;8.380;2023-05-29T13:45:34;32.80;30.60
28087;DHT22;15392;48.912;8.380;2023-05-29T13:48:00;32.80;30.70
28087;DHT22;15392;48.912;8.380;2023-05-29T13:50:26;32.80;30.70
28087;DHT22;15392;48.912;8.380;2023-05-29T13:52:52;32.80;30.60
28087;DHT22;15392;48.912;8.380;2023-05-29T13:55:19;32.80;30.60
28087;DHT22;15392;48.912;8.380;2023-05-29T13:57:45;32.70;30.40
28087;DHT22;15392;48.912;8.380;2023-05-29T14:00:11;32.70;30.10
28087;DHT22;15392;48.912;8.380;2023-05-29T14:02:37;32.70;30.40
28087;DHT22;15392;48.912;8.380;2023-05-29T14:05:19;32.60;30.70
28087;DHT22;15392;48.912;8.380;2023-05-29T14:07:45;32.60;29.50
28087;DHT22;15392;48.912;8.380;2023-05-29T14:10:11;32.50;30.40
28087;DHT22;15392;48.912;8.380;2023-05-29T14:12:36;32.50;30.60
28087;DHT22;15392;48.912;8.380;2023-05-29T14:15:02;32.50;30.40
28087;DHT22;15392;48.912;8.380;2023-05-29T14:17:28;32.40;30.50
28087;DHT22;15392;48.912;8.380;2023-05-29T14:19:54;32.40;30.40
28087;DHT22;15392;48.912;8.380;2023-05-29T14:22:21;32.30;30.60
28087;DHT22;15392;48.912;8.380;2023-05-29T14:24:46;32.30;30.70
28087;DHT22;15392;48.912;8.380;2023-05-29T14:27:12;32.20;30.50
28087;DHT22;15392;48.912;8.380;2023-05-29T14:29:38;32.20;30.60
28087;DHT22;15392;48.912;8.380;2023-05-29T14:32:04;32.20;30.30
28087;DHT22;15392;48.912;8.380;2023-05-29T14:34:30;32.20;30.20
28087;DHT22;15392;48.912;8.380;2023-05-29T14:36:56;32.10;30.40
28087;DHT22;15392;48.912;8.380;2023-05-29T14:39:22;32.10;30.70
28087;DHT22;15392;48.912;8.380;2023-05-29T14:41:47;32.00;30.60
28087;DHT22;15392;48.912;8.380;2023-05-29T14:44:14;32.00;30.40
28087;DHT22;15392;48.912;8.380;2023-05-29T14:46:40;32.00;30.50
28087;DHT22;15392;48.912;8.380;2023-05-29T14:49:06;31.90;30.60
28087;DHT22;15392;48.912;8.380;2023-05-29T14:51:31;31.90;30.40
28087;DHT22;15392;48.912;8.380;2023-05-29T14:53:58;31.80;30.80
28087;DHT22;15392;48.912;8.380;2023-05-29T14:56:24;31.80;30.80
28087;DHT22;15392;48.912;8.380;2023-05-29T14:58:50;31.80;30.60
28087;DHT22;15392;48.912;8.380;2023-05-29T15:01:17;31.80;30.70
28087;DHT22;15392;48.912;8.380;2023-05-29T15:03:42;31.70;30.80
28087;DHT22;15392;48.912;8.380;2023-05-29T15:06:11;31.70;30.70
28087;DHT22;15392;48.912;8.380;2023-05-29T15:08:38;31.60;30.50
28087;DHT22;15392;48.912;8.380;2023-05-29T15:11:05;31.60;30.50
28087;DHT22;15392;48.912;8.380;2023-05-29T15:13:31;31.60;30.50
28087;DHT22;15392;48.912;8.380;2023-05-29T15:15:57;31.60;30.50
28087;DHT22;15392;48.912;8.380;2023-05-29T15:18:28;31.60;30.70
28087;DHT22;15392;48.912;8.380;2023-05-29T15:20:54;31.60;30.70
28087;DHT22;15392;48.912;8.380;2023-05-29T15:23:21;31.50;30.60
28087;DHT22;15392;48.912;8.380;2023-05-29T15:25:50;31.50;31.10
28087;DHT22;15392;48.912;8.380;2023-05-29T15:28:16;31.50;30.70
28087;DHT22;15392;48.912;8.380;2023-05-29T15:30:42;31.50;30.50
28087;DHT22;15392;48.912;8.380;2023-05-29T15:33:08;31.40;30.80
28087;DHT22;15392;48.912;8.380;2023-05-29T15:35:37;31.40;30.70
28087;DHT22;15392;48.912;8.380;2023-05-29T15:38:09;31.40;30.50
28087;DHT22;15392;48.912;8.380;2023-05-29T15:40:37;31.40;30.60
28087;DHT22;15392;48.912;8.380;2023-05-29T15:43:03;31.40;30.70
28087;DHT22;15392;48.912;8.380;2023-05-29T15:45:30;31.40;30.50
28087;DHT22;15392;48.912;8.380;2023-05-29T15:47:56;31.30;30.50
28087;DHT22;15392;48.912;8.380;2023-05-29T15:50:22;31.30;30.50
28087;DHT22;15392;48.912;8.380;2023-05-29T15:52:48;31.30;30.30
28087;DHT22;15392;48.912;8.380;2023-05-29T15:55:15;31.30;30.50
28087;DHT22;15392;48.912;8.380;2023-05-29T15:57:42;31.30;30.40
28087;DHT22;15392;48.912;8.380;2023-05-29T16:00:09;31.30;30.30
28087;DHT22;15392;48.912;8.380;2023-05-29T16:02:38;31.30;30.30
28087;DHT22;15392;48.912;8.380;2023-05-29T16:05:05;31.30;30.00
28087;DHT22;15392;48.912;8.380;2023-05-29T16:07:32;31.20;30.20
28087;DHT22;15392;48.912;8.380;2023-05-29T16:09:59;31.20;30.20
28087;DHT22;15392;48.912;8.380;2023-05-29T16:12:28;31.20;30.40
28087;DHT22;15392;48.912;8.380;2023-05-29T16:14:55;31.20;30.00
28087;DHT22;15392;48.912;8.380;2023-05-29T16:17:22;31.10;30.00
28087;DHT22;15392;48.912;8.380;2023-05-29T16:19:48;31.10;30.00